CZEM/ZEM METAR and TAF weather

Enter ICAO airport designator
Station Type Date Time Source
CZEM METAR 2018/07/18 20:00 UTC NOAA

CZEM 182000Z 21008KT 190V280 15SM FEW035 FEW100 21/11 A2987 RMK SC1AC1 LAST STFD OBS/NEXT 191300 UTC SLP115 DENSITY ALT 800FT


Station Type Date Time Source
CZEM Decoded METAR 2018/07/18 20:00 UTC NOAA

Eastmain River Airport, Canada (CZEM) 52-14N 078-31W
Jul 18, 2018 - 04:00 PM EDT / 2018.07.18 2000 UTC
Wind: from the SSW (210 degrees) at 9 MPH (8 KT) (direction variable):0
Visibility: 15 mile(s):0
Sky conditions: mostly clear
Temperature: 69 F (21 C)
Dew Point: 51 F (11 C)
Relative Humidity: 52%
Pressure (altimeter): 29.87 in. Hg (1011 hPa)
ob: CZEM 182000Z 21008KT 190V280 15SM FEW035 FEW100 21/11 A2987 RMK SC1AC1 LAST STFD OBS/NEXT 191300 UTC SLP115 DENSITY ALT 800FT
cycle: 20

Station Type Date Time Source
CZEM TAF UTC NOAA

Error!


Example: see airport list